Time;durP1;ratioP1;P1;durP2;ratioP2;P2;SDS_P1;SDS_P2;PMS_P1;PMS_P2;Temp;Humidity;BMP_temperature;BMP_pressure;BME280_temperature;BME280_humidity;BME280_pressure;Samples;Min_cycle;Max_cycle;Signal;HPM_P1;HPM_P2
2021/12/02 00:00:54;;;;;;;21.65;4.05;;;;;;;2.53;100.00;99929.56;5091275;28;20566;-83
2021/12/02 00:03:19;;;;;;;20.05;4.32;;;;;;;2.45;100.00;99921.00;5091133;28;20021;-84
2021/12/02 00:05:44;;;;;;;13.35;3.55;;;;;;;2.40;100.00;99917.63;5091839;28;20054;-84
2021/12/02 00:08:10;;;;;;;26.25;5.20;;;;;;;2.44;100.00;99924.44;5090545;28;20073;-84
2021/12/02 00:10:36;;;;;;;14.07;3.28;;;;;;;2.53;100.00;99929.56;5090391;28;20368;-83
2021/12/02 00:13:03;;;;;;;14.52;3.72;;;;;;;2.63;100.00;99943.22;5092280;28;20035;-83
2021/12/02 00:15:35;;;;;;;20.83;4.30;;;;;;;2.63;100.00;99938.94;5089519;28;20544;-83
2021/12/02 00:21:22;;;;;;;23.15;3.80;;;;;;;2.78;100.00;99948.28;5092322;28;20464;-83
2021/12/02 00:23:34;;;;;;;15.02;3.40;;;;;;;2.76;100.00;99944.88;5069564;28;20035;-83
2021/12/02 00:26:03;;;;;;;18.30;3.35;;;;;;;2.72;100.00;99945.75;5071262;28;20043;-83
2021/12/02 00:28:29;;;;;;;18.50;3.58;;;;;;;2.68;100.00;99938.88;5088591;28;20109;-84
2021/12/02 00:30:57;;;;;;;12.40;2.90;;;;;;;2.69;100.00;99945.75;5091996;28;20102;-84
2021/12/02 00:33:25;;;;;;;14.32;3.25;;;;;;;2.74;100.00;99944.00;5091220;28;20020;-84
2021/12/02 00:35:51;;;;;;;12.90;3.17;;;;;;;2.81;100.00;99948.25;5091288;28;20052;-83
2021/12/02 00:38:19;;;;;;;12.70;3.30;;;;;;;2.78;100.00;99940.56;5077598;28;20035;-83
2021/12/02 00:40:45;;;;;;;12.82;3.72;;;;;;;2.81;100.00;99945.66;5071628;28;20021;-83
2021/12/02 00:43:10;;;;;;;14.60;4.00;;;;;;;2.78;100.00;99928.56;5071049;28;20373;-83
2021/12/02 00:45:39;;;;;;;25.45;3.45;;;;;;;2.72;100.00;99920.00;5071176;28;20035;-83
2021/12/02 00:48:07;;;;;;;18.63;3.70;;;;;;;2.77;100.00;99938.84;5081614;28;20498;-83
2021/12/02 00:50:32;;;;;;;14.57;4.10;;;;;;;2.77;100.00;99931.97;5071598;28;20024;-83
2021/12/02 00:53:00;;;;;;;16.05;3.90;;;;;;;2.71;100.00;99929.44;5071059;28;20035;-83
2021/12/02 00:55:26;;;;;;;20.35;4.40;;;;;;;2.70;100.00;99932.03;5084174;28;20039;-83
2021/12/02 00:57:52;;;;;;;21.92;4.10;;;;;;;2.73;100.00;99939.72;5091416;28;20118;-83
2021/12/02 01:00:18;;;;;;;16.00;3.45;;;;;;;2.68;100.00;99928.59;5090266;28;20047;-83
2021/12/02 01:02:44;;;;;;;14.65;4.18;;;;;;;2.68;100.00;99926.91;5091852;28;20071;-83
2021/12/02 01:05:09;;;;;;;18.05;4.63;;;;;;;2.70;100.00;99926.88;5091428;28;20033;-83
2021/12/02 01:07:35;;;;;;;17.98;4.03;;;;;;;2.69;100.00;99925.19;5089969;28;20069;-83
2021/12/02 01:10:01;;;;;;;20.95;4.00;;;;;;;2.65;100.00;99929.50;5091841;28;20026;-84
2021/12/02 01:12:26;;;;;;;15.52;3.50;;;;;;;2.58;100.00;99908.09;5092637;28;20112;-84
2021/12/02 01:14:51;;;;;;;21.77;3.83;;;;;;;2.64;100.00;99917.47;5094144;28;20039;-85
2021/12/02 01:17:17;;;;;;;17.70;3.80;;;;;;;2.75;100.00;99925.16;5094763;28;20048;-83
2021/12/02 01:19:42;;;;;;;20.88;3.85;;;;;;;2.73;100.00;99927.72;5095891;28;20023;-83
2021/12/02 01:22:08;;;;;;;11.40;3.78;;;;;;;2.80;100.00;99949.13;5094308;28;20472;-83
2021/12/02 01:24:34;;;;;;;17.25;3.80;;;;;;;2.80;100.00;99941.41;5095577;28;20415;-83
2021/12/02 01:27:05;;;;;;;18.88;3.53;;;;;;;2.82;100.00;99955.13;5095273;28;20036;-83
2021/12/02 01:29:34;;;;;;;16.02;3.55;;;;;;;2.81;100.00;99943.97;5093504;28;20074;-82
2021/12/02 01:32:05;;;;;;;12.07;3.00;;;;;;;2.76;100.00;99934.56;5095625;28;20084;-83
2021/12/02 01:34:31;;;;;;;14.20;2.30;;;;;;;2.67;100.00;99935.47;5093779;28;20024;-84
2021/12/02 01:36:56;;;;;;;8.15;2.60;;;;;;;2.52;100.00;99943.28;5095279;28;20040;-84
2021/12/02 01:39:22;;;;;;;12.40;2.95;;;;;;;2.54;100.00;99954.41;5094797;28;20023;-84
2021/12/02 01:41:51;;;;;;;9.30;2.63;;;;;;;2.48;100.00;99950.13;5094418;28;20403;-84
2021/12/02 01:44:19;;;;;;;12.98;3.35;;;;;;;2.44;100.00;99958.75;5094358;28;20075;-84
2021/12/02 01:46:47;;;;;;;16.55;3.30;;;;;;;2.37;100.00;99957.06;5095242;28;20059;-84
2021/12/02 01:49:13;;;;;;;17.05;3.55;;;;;;;2.32;100.00;99962.25;5093631;28;20024;-84
2021/12/02 01:51:45;;;;;;;12.70;4.25;;;;;;;2.34;100.00;99946.78;5094080;28;20028;-83
2021/12/02 01:54:13;;;;;;;12.20;4.68;;;;;;;2.33;100.00;99948.50;5094822;28;20032;-84
2021/12/02 01:56:47;;;;;;;14.50;5.13;;;;;;;2.38;100.00;99948.47;5094262;28;20057;-83
2021/12/02 01:59:21;;;;;;;13.40;4.93;;;;;;;2.36;100.00;99947.66;5093913;28;20490;-83
2021/12/02 02:01:50;;;;;;;12.98;5.55;;;;;;;2.33;100.00;99947.66;5094749;28;20035;-83
2021/12/02 02:04:16;;;;;;;16.70;4.25;;;;;;;2.28;100.00;99950.22;5093362;28;20103;-83
2021/12/02 02:06:54;;;;;;;15.65;4.57;;;;;;;2.20;100.00;99949.41;5090462;28;20392;-84
2021/12/02 02:09:20;;;;;;;12.30;4.32;;;;;;;2.13;100.00;99947.75;5091538;28;20099;-84
2021/12/02 02:11:45;;;;;;;13.00;4.22;;;;;;;2.09;100.00;99951.16;5093446;28;20586;-83
2021/12/02 02:14:10;;;;;;;12.85;4.90;;;;;;;2.02;100.00;99946.91;5093550;28;20110;-83
2021/12/02 02:16:38;;;;;;;11.90;4.60;;;;;;;1.95;100.00;99951.19;5094060;28;20125;-83
2021/12/02 02:19:08;;;;;;;15.80;4.75;;;;;;;1.88;100.00;99946.94;5093645;28;20095;-83
2021/12/02 02:21:36;;;;;;;12.80;5.05;;;;;;;1.83;100.00;99956.38;5092818;28;20103;-83
2021/12/02 02:24:03;;;;;;;7.68;4.00;;;;;;;1.76;100.00;99957.25;5093045;28;20028;-84
2021/12/02 02:26:36;;;;;;;11.75;4.57;;;;;;;1.78;100.00;99958.09;5094481;28;20020;-83
2021/12/02 02:29:05;;;;;;;15.23;5.03;;;;;;;1.72;100.00;99963.25;5093953;28;20464;-83
2021/12/02 02:31:30;;;;;;;9.43;4.18;;;;;;;1.65;100.00;99949.56;5093086;28;20081;-83
2021/12/02 02:33:56;;;;;;;10.40;5.05;;;;;;;1.58;100.00;99935.88;5095332;28;20035;-83
2021/12/02 02:36:25;;;;;;;12.63;5.10;;;;;;;1.65;100.00;99954.69;5093876;28;20028;-83
2021/12/02 02:38:57;;;;;;;14.55;5.35;;;;;;;1.65;100.00;99949.56;5092400;28;20380;-83
2021/12/02 02:41:29;;;;;;;9.13;4.70;;;;;;;1.75;100.00;99958.09;5093470;28;20388;-83
2021/12/02 02:43:58;;;;;;;13.57;4.72;;;;;;;1.77;100.00;99952.13;5093771;28;20549;-84
2021/12/02 02:46:29;;;;;;;9.63;4.53;;;;;;;1.70;100.00;99947.84;5093036;28;20039;-83
2021/12/02 02:48:56;;;;;;;16.35;4.65;;;;;;;1.58;100.00;99945.28;5092848;28;20153;-83
2021/12/02 02:51:22;;;;;;;11.93;4.00;;;;;;;1.53;100.00;99952.97;5093521;28;20066;-83
2021/12/02 02:53:53;;;;;;;9.35;3.90;;;;;;;1.51;100.00;99954.72;5092651;28;20510;-83
2021/12/02 02:56:21;;;;;;;8.57;3.85;;;;;;;1.49;100.00;99953.84;5093480;28;20051;-83
2021/12/02 03:04:14;;;;;;;16.38;4.20;;;;;;;1.52;100.00;99958.13;5091959;28;20032;-84
2021/12/02 03:06:40;;;;;;;9.93;3.78;;;;;;;1.48;100.00;99959.00;5092194;28;20024;-83
2021/12/02 03:09:10;;;;;;;19.90;4.18;;;;;;;1.37;100.00;99961.56;5092688;28;20086;-83
2021/12/02 03:11:42;;;;;;;16.83;4.15;;;;;;;1.31;100.00;99962.44;5093513;28;20031;-83
2021/12/02 03:14:14;;;;;;;10.90;4.07;;;;;;;1.23;100.00;99947.88;5092461;28;20028;-83
2021/12/02 03:16:46;;;;;;;14.48;3.85;;;;;;;1.21;100.00;99950.44;5093109;28;20081;-83
2021/12/02 03:19:21;;;;;;;13.20;4.18;;;;;;;1.25;100.00;99947.03;5090218;28;20110;-83
2021/12/02 03:21:46;;;;;;;14.23;5.13;;;;;;;1.37;100.00;99959.00;5082016;28;20519;-82
2021/12/02 03:24:12;;;;;;;13.00;4.40;;;;;;;1.44;100.00;99957.28;5072972;28;20020;-83
2021/12/02 03:26:38;;;;;;;19.48;5.55;;;;;;;1.47;100.00;99957.28;5073125;28;20091;-82
2021/12/02 03:29:04;;;;;;;11.98;5.30;;;;;;;1.43;100.00;99956.41;5081905;28;20020;-83
2021/12/02 03:31:29;;;;;;;11.65;4.63;;;;;;;1.47;100.00;99958.16;5091765;28;20032;-82
2021/12/02 03:33:55;;;;;;;13.90;5.55;;;;;;;1.51;100.00;99952.16;5092862;28;20043;-82
2021/12/02 03:36:20;;;;;;;16.58;5.65;;;;;;;1.66;100.00;99982.09;5091497;28;20085;-82
2021/12/02 03:38:46;;;;;;;12.13;5.60;;;;;;;1.72;100.00;99973.53;5091963;28;20028;-82
2021/12/02 03:41:12;;;;;;;17.65;5.95;;;;;;;1.74;100.00;99976.97;5091864;28;20392;-82
2021/12/02 03:43:40;;;;;;;16.08;5.70;;;;;;;1.81;100.00;99983.81;5092806;28;20420;-82
2021/12/02 03:46:06;;;;;;;14.48;5.55;;;;;;;1.84;100.00;99991.50;5091804;28;20028;-84
2021/12/02 03:48:32;;;;;;;19.42;5.20;;;;;;;1.83;100.00;99994.91;5089471;28;20115;-83
2021/12/02 03:50:58;;;;;;;19.63;4.50;;;;;;;1.91;100.00;99998.34;5092817;28;20103;-82
2021/12/02 03:53:23;;;;;;;14.38;4.60;;;;;;;1.90;100.00;99998.34;5092878;28;20527;-82
2021/12/02 03:55:48;;;;;;;16.20;4.35;;;;;;;1.94;100.00;99982.91;5091235;28;20123;-83
2021/12/02 03:58:14;;;;;;;10.05;3.60;;;;;;;1.97;100.00;99980.34;5092098;28;20521;-83
2021/12/02 04:00:40;;;;;;;18.42;4.00;;;;;;;1.92;100.00;99974.34;5092130;28;20024;-83
2021/12/02 04:03:06;;;;;;;17.65;3.65;;;;;;;1.80;100.00;99964.09;5090890;28;20020;-83
2021/12/02 04:05:31;;;;;;;15.45;3.28;;;;;;;1.67;100.00;99964.97;5091755;28;20032;-83
2021/12/02 04:07:56;;;;;;;8.50;3.05;;;;;;;1.61;100.00;99966.69;5092548;28;20035;-83
2021/12/02 04:10:23;;;;;;;13.43;3.60;;;;;;;1.50;100.00;99963.25;5091184;28;20072;-83
2021/12/02 04:15:32;;;;;;;12.50;3.50;;;;;;;1.53;100.00;99968.41;5092380;28;20043;-84
2021/12/02 04:17:57;;;;;;;10.23;4.00;;;;;;;1.53;100.00;99963.25;5090505;28;20024;-83
2021/12/02 04:20:23;;;;;;;9.40;3.88;;;;;;;1.58;100.00;99965.84;5091301;28;20391;-83
2021/12/02 04:22:50;;;;;;;10.98;3.58;;;;;;;1.61;100.00;99965.84;5092126;28;20058;-83
2021/12/02 04:25:17;;;;;;;16.92;3.90;;;;;;;1.58;100.00;99953.84;5091188;28;20582;-82
2021/12/02 04:27:44;;;;;;;10.90;3.28;;;;;;;1.65;100.00;99970.13;5091628;28;20081;-82
2021/12/02 04:30:11;;;;;;;13.00;3.15;;;;;;;1.64;100.00;99968.41;5092207;28;20035;-83
2021/12/02 04:32:37;;;;;;;12.00;2.88;;;;;;;1.56;100.00;99965.81;5090951;28;20025;-82
2021/12/02 04:35:02;;;;;;;11.07;2.78;;;;;;;1.38;100.00;99947.88;5091196;28;20111;-83
2021/12/02 04:37:29;;;;;;;10.27;2.60;;;;;;;1.46;100.00;99974.41;5091403;28;20107;-83
2021/12/02 04:39:55;;;;;;;19.10;3.20;;;;;;;1.49;100.00;99971.84;5092465;28;20027;-83
2021/12/02 04:42:20;;;;;;;10.55;3.20;;;;;;;1.54;100.00;99979.56;5091283;28;20376;-83
2021/12/02 04:44:45;;;;;;;12.90;3.15;;;;;;;1.46;100.00;99961.56;5091129;28;20526;-83
2021/12/02 04:47:10;;;;;;;13.90;3.70;;;;;;;1.51;100.00;99980.41;5092793;28;20088;-83
2021/12/02 04:49:36;;;;;;;8.13;2.92;;;;;;;1.57;100.00;99985.53;5095716;28;20039;-83
2021/12/02 04:52:02;;;;;;;13.57;3.75;;;;;;;1.56;100.00;99985.53;5095269;28;20402;-83
2021/12/02 04:54:27;;;;;;;13.45;3.25;;;;;;;1.46;100.00;99983.81;5095969;28;20464;-83
2021/12/02 04:56:53;;;;;;;8.27;3.00;;;;;;;1.47;100.00;99990.66;5095671;28;20115;-83
2021/12/02 04:59:18;;;;;;;17.45;3.13;;;;;;;1.39;100.00;99985.53;5094836;28;20024;-83
2021/12/02 05:01:44;;;;;;;10.38;2.65;;;;;;;1.38;100.00;99989.81;5095292;28;20030;-83
2021/12/02 05:04:09;;;;;;;13.80;3.08;;;;;;;1.31;100.00;99977.84;5095310;28;20115;-83
2021/12/02 05:06:37;;;;;;;13.10;2.83;;;;;;;1.35;100.00;99983.84;5095247;28;20032;-83
2021/12/02 05:09:03;;;;;;;15.85;3.17;;;;;;;1.45;100.00;99994.97;5096221;28;20039;-83
2021/12/02 05:11:28;;;;;;;13.55;3.30;;;;;;;1.51;100.00;99995.81;5094985;28;20024;-83
2021/12/02 05:13:53;;;;;;;11.60;2.90;;;;;;;1.60;100.00;100016.38;5095308;28;20107;-83
2021/12/02 05:16:19;;;;;;;10.40;3.80;;;;;;;1.64;100.00;100022.38;5095451;28;20075;-82
2021/12/02 05:18:44;;;;;;;11.18;3.60;;;;;;;1.69;100.00;100027.50;5095494;28;20460;-83
2021/12/02 05:21:10;;;;;;;12.52;3.70;;;;;;;1.71;100.00;100016.38;5093202;28;20521;-82
2021/12/02 05:23:35;;;;;;;13.10;2.75;;;;;;;1.68;100.00;100018.94;5095279;28;20065;-82
2021/12/02 05:26:01;;;;;;;15.35;2.65;;;;;;;1.68;100.00;100021.50;5095682;28;20028;-82
2021/12/02 05:28:26;;;;;;;11.48;2.30;;;;;;;1.68;100.00;100018.94;5093909;28;20479;-82
2021/12/02 05:30:51;;;;;;;13.45;2.28;;;;;;;1.59;100.00;100013.78;5095213;28;20020;-81
2021/12/02 05:33:17;;;;;;;8.75;1.63;;;;;;;1.47;100.00;100029.19;5095486;28;20024;-81
2021/12/02 05:35:43;;;;;;;6.35;1.50;;;;;;;1.23;100.00;100019.75;5093386;28;20028;-82
2021/12/02 05:38:09;;;;;;;10.23;1.50;;;;;;;1.21;100.00;100021.47;5094734;28;20036;-82
2021/12/02 05:40:34;;;;;;;8.00;1.30;;;;;;;1.15;100.00;100019.75;5094875;28;20476;-82
2021/12/02 05:43:00;;;;;;;4.35;1.13;;;;;;;1.09;100.00;100019.75;5094507;28;20414;-83
2021/12/02 05:45:25;;;;;;;5.18;0.90;;;;;;;1.06;100.00;100020.59;5095092;28;20028;-83
2021/12/02 05:47:50;;;;;;;4.13;0.90;;;;;;;1.05;100.00;100021.47;5094060;28;20020;-83
2021/12/02 05:50:16;;;;;;;8.77;1.20;;;;;;;1.03;100.00;100023.16;5093975;28;20111;-84
2021/12/02 05:52:41;;;;;;;11.52;1.25;;;;;;;1.06;100.00;100028.28;5094931;28;20024;-83
2021/12/02 05:55:07;;;;;;;10.95;1.90;;;;;;;1.20;100.00;100040.31;5093623;28;20039;-83
2021/12/02 05:57:33;;;;;;;9.38;2.25;;;;;;;1.16;100.00;100045.41;5094201;28;20054;-83
2021/12/02 05:59:59;;;;;;;5.93;1.40;;;;;;;1.12;100.00;100043.72;5093638;28;20131;-82
2021/12/02 06:02:25;;;;;;;7.13;1.10;;;;;;;1.06;100.00;100038.56;5075649;28;20456;-82
2021/12/02 06:04:52;;;;;;;4.72;1.10;;;;;;;1.01;100.00;100029.97;5093861;28;20119;-81
2021/12/02 06:07:21;;;;;;;2.20;0.90;;;;;;;0.86;100.00;100022.25;5093730;28;20090;-82
2021/12/02 06:09:46;;;;;;;8.25;1.00;;;;;;;0.82;100.00;100033.38;5093789;28;20020;-82
2021/12/02 06:12:13;;;;;;;3.28;1.45;;;;;;;0.74;100.00;100024.78;5094584;28;20065;-82
2021/12/02 06:14:38;;;;;;;3.65;1.30;;;;;;;0.70;100.00;100029.03;5094057;28;20809;-82
2021/12/02 06:17:04;;;;;;;9.88;1.42;;;;;;;0.64;100.00;100036.72;5093034;28;20032;-82
2021/12/02 06:19:29;;;;;;;6.50;1.20;;;;;;;0.53;100.00;100033.25;5079819;28;20150;-82
2021/12/02 06:21:55;;;;;;;3.92;0.80;;;;;;;0.52;100.00;100041.78;5090427;28;20035;-82
2021/12/02 06:24:29;;;;;;;8.50;0.90;;;;;;;0.39;100.00;100030.59;5092626;28;20024;-82
2021/12/02 06:26:56;;;;;;;10.25;1.08;;;;;;;0.46;100.00;100045.19;5094350;28;20016;-82
2021/12/02 06:29:23;;;;;;;12.48;1.55;;;;;;;0.43;100.00;100042.63;5093059;28;20040;-82
2021/12/02 06:31:48;;;;;;;5.93;1.20;;;;;;;0.55;100.00;100055.47;5092601;28;20035;-82
2021/12/02 06:34:13;;;;;;;9.45;1.35;;;;;;;0.65;100.00;100061.50;5093719;28;20024;-82
2021/12/02 06:36:39;;;;;;;8.73;1.20;;;;;;;0.66;100.00;100055.53;5094099;28;20051;-82
2021/12/02 06:39:05;;;;;;;7.45;1.90;;;;;;;0.72;100.00;100057.25;5092617;28;20070;-82
2021/12/02 06:41:30;;;;;;;3.95;1.50;;;;;;;0.75;100.00;100059.84;5093779;28;20042;-83
2021/12/02 06:43:56;;;;;;;10.63;1.90;;;;;;;0.68;100.00;100041.84;5091611;28;20471;-83
2021/12/02 06:46:21;;;;;;;11.82;2.05;;;;;;;0.66;100.00;100043.56;5093867;28;20475;-83
2021/12/02 06:48:48;;;;;;;7.13;1.80;;;;;;;0.58;100.00;100047.78;5093863;28;20032;-82
2021/12/02 06:51:14;;;;;;;9.07;3.28;;;;;;;0.57;100.00;100040.13;5092435;28;20059;-83
2021/12/02 06:53:40;;;;;;;11.35;3.05;;;;;;;0.65;100.00;100049.56;5093202;28;20052;-82
2021/12/02 06:56:05;;;;;;;11.05;3.88;;;;;;;0.72;100.00;100064.97;5093343;28;20071;-83
2021/12/02 06:58:31;;;;;;;13.40;5.70;;;;;;;0.73;100.00;100077.81;5088780;28;20038;-83
2021/12/02 07:00:56;;;;;;;21.20;6.00;;;;;;;0.80;100.00;100099.22;5088379;28;20024;-83
2021/12/02 07:03:21;;;;;;;11.27;4.72;;;;;;;0.85;100.00;100083.00;5093328;28;20119;-83
2021/12/02 07:05:47;;;;;;;8.98;4.30;;;;;;;0.87;100.00;100091.53;5091669;28;20036;-83
2021/12/02 07:08:15;;;;;;;13.02;5.38;;;;;;;0.87;100.00;100098.38;5093348;28;20036;-82
2021/12/02 07:10:40;;;;;;;14.57;6.10;;;;;;;0.94;100.00;100102.69;5092473;28;20111;-83
2021/12/02 07:13:06;;;;;;;20.60;8.25;;;;;;;0.94;100.00;100095.84;5091486;28;20114;-82
2021/12/02 07:15:34;;;;;;;18.60;8.85;;;;;;;1.06;100.00;100105.31;5093258;28;20031;-83
2021/12/02 07:18:01;;;;;;;20.90;9.90;;;;;;;1.04;100.00;100093.31;5093082;28;20038;-82
2021/12/02 07:20:35;;;;;;;17.92;10.02;;;;;;;1.13;100.00;100101.91;5092220;28;20032;-82
2021/12/02 07:23:01;;;;;;;20.95;10.50;;;;;;;1.14;100.00;100098.50;5092802;28;20031;-83
2021/12/02 07:25:27;;;;;;;19.90;8.48;;;;;;;1.09;100.00;100099.31;5091989;28;20036;-83
2021/12/02 07:27:52;;;;;;;14.93;6.90;;;;;;;1.19;100.00;100118.19;5092373;28;20150;-82
2021/12/02 07:30:18;;;;;;;17.90;6.78;;;;;;;1.16;100.00;100127.59;5093100;28;20068;-83
2021/12/02 07:32:50;;;;;;;13.70;6.53;;;;;;;1.13;100.00;100126.72;5091283;28;20494;-82
2021/12/02 07:35:16;;;;;;;18.85;6.53;;;;;;;1.13;100.00;100124.16;5091470;28;20051;-82
2021/12/02 07:37:44;;;;;;;15.02;6.47;;;;;;;1.16;100.00;100130.16;5092461;28;20124;-82
2021/12/02 07:40:11;;;;;;;22.23;6.40;;;;;;;1.22;100.00;100141.31;5092454;28;20133;-83
2021/12/02 07:42:37;;;;;;;17.70;7.05;;;;;;;1.19;100.00;100129.31;5092803;28;20020;-82
2021/12/02 07:45:04;;;;;;;17.20;8.00;;;;;;;1.17;100.00;100129.28;5092390;28;20404;-83
2021/12/02 07:47:30;;;;;;;21.13;8.05;;;;;;;1.25;100.00;100133.63;5091016;28;20034;-84
2021/12/02 07:49:55;;;;;;;20.15;7.75;;;;;;;1.25;100.00;100143.88;5093118;28;20102;-83
2021/12/02 07:52:24;;;;;;;24.40;8.13;;;;;;;1.27;100.00;100132.75;5091957;28;20016;-83
2021/12/02 07:54:51;;;;;;;18.40;8.20;;;;;;;1.23;100.00;100133.59;5091346;28;20063;-83
2021/12/02 07:57:18;;;;;;;18.17;8.45;;;;;;;1.09;100.00;100136.13;5085149;28;20040;-83
2021/12/02 07:59:43;;;;;;;20.48;8.77;;;;;;;1.00;100.00;100141.22;5081592;28;20537;-83
2021/12/02 08:02:15;;;;;;;21.35;8.73;;;;;;;0.92;100.00;100151.47;5083001;28;20024;-83
2021/12/02 08:04:41;;;;;;;26.13;9.73;;;;;;;0.84;100.00;100159.97;5082707;28;20020;-83
2021/12/02 08:07:06;;;;;;;19.00;8.27;;;;;;;0.78;100.00;100150.50;5084946;28;20040;-82
2021/12/02 08:09:32;;;;;;;18.92;8.13;;;;;;;0.74;100.00;100146.22;5087176;28;20027;-83
2021/12/02 08:11:59;;;;;;;22.25;9.27;;;;;;;0.74;100.00;100151.34;5085102;28;20020;-83
2021/12/02 08:14:25;;;;;;;22.25;8.43;;;;;;;0.65;100.00;100149.63;5086849;28;20086;-83
2021/12/02 08:16:50;;;;;;;18.80;8.27;;;;;;;0.62;100.00;100166.66;5091626;28;20135;-83
2021/12/02 08:19:15;;;;;;;22.20;8.93;;;;;;;0.53;100.00;100157.22;5091594;28;20572;-82
2021/12/02 08:21:41;;;;;;;17.95;8.27;;;;;;;0.45;100.00;100151.19;5090835;28;20099;-82
2021/12/02 08:24:06;;;;;;;15.65;8.13;;;;;;;0.44;100.00;100158.00;5086203;28;20470;-83
2021/12/02 08:26:33;;;;;;;14.68;7.70;;;;;;;0.42;100.00;100166.53;5090040;28;20544;-82
2021/12/02 08:28:58;;;;;;;22.30;8.38;;;;;;;0.40;100.00;100168.25;5087181;28;20024;-83
2021/12/02 08:31:26;;;;;;;18.92;8.05;;;;;;;0.35;100.00;100159.66;5086869;28;20047;-82
2021/12/02 08:33:53;;;;;;;18.17;7.63;;;;;;;0.36;100.00;100169.06;5080465;28;20031;-82
2021/12/02 08:36:22;;;;;;;18.27;7.35;;;;;;;0.33;100.00;100163.94;5073851;28;20035;-82
2021/12/02 08:38:48;;;;;;;17.98;7.60;;;;;;;0.39;100.00;100176.78;5078657;28;20024;-82
2021/12/02 08:41:17;;;;;;;18.02;7.18;;;;;;;0.38;100.00;100160.53;5084238;28;20047;-81
2021/12/02 08:43:43;;;;;;;17.10;6.35;;;;;;;0.47;100.00;100175.13;5082925;28;20123;-81
2021/12/02 08:46:08;;;;;;;18.42;6.63;;;;;;;0.46;100.00;100170.88;5071712;28;20166;-81
2021/12/02 08:48:33;;;;;;;13.95;6.68;;;;;;;0.52;100.00;100181.13;5071424;28;20021;-82
2021/12/02 08:50:59;;;;;;;14.57;5.93;;;;;;;0.51;100.00;100187.13;5089731;28;20549;-81
2021/12/02 08:53:24;;;;;;;14.65;5.30;;;;;;;0.56;100.00;100194.88;5090719;28;20031;-81
2021/12/02 08:55:50;;;;;;;20.05;6.43;;;;;;;0.57;100.00;100202.56;5090809;28;20043;-82
2021/12/02 08:58:16;;;;;;;13.70;6.85;;;;;;;0.70;100.00;100209.50;5090699;28;20062;-81
2021/12/02 09:00:41;;;;;;;19.75;7.38;;;;;;;0.81;100.00;100203.56;5090814;28;20051;-81
2021/12/02 09:03:09;;;;;;;21.50;7.53;;;;;;;1.04;100.00;100225.06;5091478;28;20048;-82
2021/12/02 09:05:36;;;;;;;22.17;8.02;;;;;;;1.23;100.00;100230.31;5090923;28;20422;-81
2021/12/02 09:08:01;;;;;;;23.15;8.55;;;;;;;1.31;100.00;100233.78;5090822;28;20376;-81
2021/12/02 09:10:27;;;;;;;18.92;7.32;;;;;;;1.28;100.00;100233.78;5090912;28;20024;-81
2021/12/02 09:12:53;;;;;;;20.83;6.85;;;;;;;1.32;100.00;100230.38;5090000;28;20026;-81
2021/12/02 09:15:19;;;;;;;22.65;7.57;;;;;;;1.42;100.00;100232.13;5091481;28;20038;-81
2021/12/02 09:17:44;;;;;;;23.40;8.02;;;;;;;1.63;100.00;100247.63;5089802;28;20020;-81
2021/12/02 09:20:12;;;;;;;25.20;8.40;;;;;;;1.88;100.00;100245.09;5082356;28;20050;-81
2021/12/02 09:22:38;;;;;;;28.48;7.43;;;;;;;1.82;100.00;100245.09;5082356;28;20507;-81
2021/12/02 09:25:05;;;;;;;19.60;6.40;;;;;;;1.71;100.00;100245.06;5087788;28;20016;-81
2021/12/02 09:27:32;;;;;;;15.23;5.88;;;;;;;1.61;100.00;100256.16;5089728;28;20464;-81
2021/12/02 09:29:57;;;;;;;19.20;5.32;;;;;;;1.48;100.00;100257.84;5091219;28;20032;-82
2021/12/02 09:32:23;;;;;;;7.90;4.20;;;;;;;1.37;100.00;100268.06;5089548;28;20067;-81
2021/12/02 09:34:49;;;;;;;11.07;3.50;;;;;;;1.34;100.00;100254.31;5093235;28;20024;-82
2021/12/02 09:37:14;;;;;;;9.85;3.22;;;;;;;1.31;100.00;100259.47;5095420;28;20024;-81
2021/12/02 09:39:40;;;;;;;15.52;5.03;;;;;;;1.28;100.00;100260.31;5095143;28;20031;-82
2021/12/02 09:42:09;;;;;;;9.52;4.13;;;;;;;1.33;100.00;100262.88;5093518;28;20084;-82
2021/12/02 09:44:35;;;;;;;10.95;2.90;;;;;;;1.40;100.00;100272.34;5094698;28;20056;-82
2021/12/02 09:47:00;;;;;;;11.98;3.17;;;;;;;1.43;100.00;100268.94;5095202;28;20494;-80
2021/12/02 09:49:25;;;;;;;10.07;3.05;;;;;;;1.52;100.00;100271.53;5094564;28;20106;-81
2021/12/02 09:54:19;;;;;;;17.02;4.82;;;;;;;1.64;100.00;100266.47;5094267;28;20040;-81
2021/12/02 09:56:49;;;;;;;12.30;4.75;;;;;;;1.63;100.00;100260.47;5093129;28;20020;-81
2021/12/02 10:01:53;;;;;;;14.07;6.72;;;;;;;1.63;100.00;100257.91;5094015;28;20384;-81
2021/12/02 10:04:22;;;;;;;15.52;5.30;;;;;;;1.72;100.00;100261.34;5094053;28;20467;-81
2021/12/02 10:06:48;;;;;;;18.27;6.30;;;;;;;1.76;100.00;100263.91;5094551;28;20037;-81
2021/12/02 10:09:38;;;;;;;19.15;6.05;;;;;;;1.77;100.00;100268.22;5093016;28;20478;-81
2021/12/02 10:12:12;;;;;;;17.17;5.90;;;;;;;1.63;100.00;100237.34;5093235;28;20056;-81
2021/12/02 10:14:39;;;;;;;15.27;6.75;;;;;;;1.92;100.00;100267.38;5095420;28;20031;-81
2021/12/02 10:17:16;;;;;;;14.20;7.07;;;;;;;2.09;100.00;100281.16;5093698;28;20035;-81
2021/12/02 10:20:01;;;;;;;14.25;5.97;;;;;;;2.10;100.00;100275.16;5090173;28;20069;-82
2021/12/02 10:22:27;;;;;;;14.93;5.50;;;;;;;2.10;100.00;100269.16;5074693;28;20082;-81
2021/12/02 10:24:52;;;;;;;11.60;4.65;;;;;;;2.10;100.00;100274.31;5094467;28;20051;-81
2021/12/02 10:27:17;;;;;;;12.85;4.22;;;;;;;2.10;100.00;100276.88;5094402;28;20417;-82
2021/12/02 10:29:47;;;;;;;13.80;5.03;;;;;;;2.10;100.00;100282.88;5092603;28;20459;-81
2021/12/02 10:32:22;;;;;;;13.10;4.82;;;;;;;2.24;100.00;100282.03;5094065;28;20028;-81
2021/12/02 10:34:55;;;;;;;17.23;6.05;;;;;;;2.36;100.00;100287.19;5093931;28;20028;-81
2021/12/02 10:37:30;;;;;;;11.27;4.18;;;;;;;2.23;100.00;100290.63;5091319;28;20551;-81
2021/12/02 10:40:10;;;;;;;8.15;4.63;;;;;;;2.18;100.00;100282.88;5093848;28;20085;-81
2021/12/02 10:42:41;;;;;;;18.25;5.43;;;;;;;2.18;100.00;100292.31;5093790;28;20544;-81
2021/12/02 10:45:07;;;;;;;18.67;5.65;;;;;;;2.20;100.00;100306.03;5091050;28;20082;-82
2021/12/02 10:47:33;;;;;;;16.35;5.72;;;;;;;2.13;100.00;100301.75;5093765;28;20031;-82
2021/12/02 10:50:10;;;;;;;15.57;6.35;;;;;;;2.09;100.00;100308.56;5093875;28;20078;-81
2021/12/02 10:52:36;;;;;;;12.35;5.70;;;;;;;2.13;100.00;100312.03;5093367;28;20020;-81
2021/12/02 10:55:09;;;;;;;15.00;6.03;;;;;;;2.13;100.00;100315.44;5093816;28;20031;-81
2021/12/02 10:57:37;;;;;;;15.98;6.22;;;;;;;2.21;100.00;100302.59;5092834;28;20036;-81
2021/12/02 11:00:06;;;;;;;17.95;6.05;;;;;;;2.28;100.00;100312.88;5092516;28;20368;-81
2021/12/02 11:02:35;;;;;;;12.98;5.85;;;;;;;2.26;100.00;100311.19;5089975;28;20412;-82
2021/12/02 11:05:07;;;;;;;17.75;6.20;;;;;;;2.32;100.00;100313.75;5079402;28;20024;-82
2021/12/02 11:07:39;;;;;;;15.38;6.10;;;;;;;2.41;100.00;100315.50;5093190;28;20028;-82
2021/12/02 11:10:15;;;;;;;15.05;6.07;;;;;;;2.65;100.00;100314.66;5092719;28;20024;-81
2021/12/02 11:12:46;;;;;;;16.00;5.90;;;;;;;2.66;100.00;100311.25;5090541;28;20039;-82
2021/12/02 11:15:17;;;;;;;16.55;5.00;;;;;;;2.63;100.00;100326.69;5089940;28;20036;-81
2021/12/02 11:17:51;;;;;;;12.38;4.88;;;;;;;2.48;100.00;100333.50;5092943;28;20024;-82
2021/12/02 11:20:25;;;;;;;14.68;5.53;;;;;;;2.40;100.00;100344.66;5092137;28;20032;-81
2021/12/02 11:22:59;;;;;;;7.95;5.28;;;;;;;2.44;100.00;100330.94;5091318;28;20067;-79
2021/12/02 11:25:24;;;;;;;17.70;5.88;;;;;;;2.43;100.00;100324.09;5081592;28;20029;-78
2021/12/02 11:27:52;;;;;;;19.15;6.88;;;;;;;2.42;100.00;100328.38;5080099;28;20025;-80
2021/12/02 11:30:26;;;;;;;15.50;6.32;;;;;;;2.43;100.00;100316.38;5086819;28;20032;-79
2021/12/02 11:32:57;;;;;;;20.23;7.82;;;;;;;2.66;100.00;100334.41;5081025;28;20029;-82
2021/12/02 11:35:31;;;;;;;16.85;7.22;;;;;;;2.61;100.00;100331.81;5092170;28;20081;-82
2021/12/02 11:38:05;;;;;;;21.67;7.97;;;;;;;2.83;100.00;100331.81;5093185;28;20388;-82